sensor_id;sensor_type;location;lat;lon;timestamp;temperature;humidity
68026;SHT31;54819;48.030;14.710;2023-04-03T00:01:06;5.59;76.87
68026;SHT31;54819;48.030;14.710;2023-04-03T00:03:33;5.60;77.06
68026;SHT31;54819;48.030;14.710;2023-04-03T00:06:01;5.58;77.58
68026;SHT31;54819;48.030;14.710;2023-04-03T00:08:29;5.56;78.00
68026;SHT31;54819;48.030;14.710;2023-04-03T00:10:58;5.56;78.07
68026;SHT31;54819;48.030;14.710;2023-04-03T00:13:25;5.58;78.16
68026;SHT31;54819;48.030;14.710;2023-04-03T00:15:52;5.60;78.15
68026;SHT31;54819;48.030;14.710;2023-04-03T00:18:19;5.61;78.13
68026;SHT31;54819;48.030;14.710;2023-04-03T00:20:47;5.59;78.36
68026;SHT31;54819;48.030;14.710;2023-04-03T00:23:14;5.55;78.28
68026;SHT31;54819;48.030;14.710;2023-04-03T00:25:41;5.52;78.17
68026;SHT31;54819;48.030;14.710;2023-04-03T00:28:08;5.49;78.10
68026;SHT31;54819;48.030;14.710;2023-04-03T00:30:36;5.49;78.10
68026;SHT31;54819;48.030;14.710;2023-04-03T00:33:03;5.48;78.06
68026;SHT31;54819;48.030;14.710;2023-04-03T00:35:30;5.48;78.02
68026;SHT31;54819;48.030;14.710;2023-04-03T00:37:57;5.48;78.16
68026;SHT31;54819;48.030;14.710;2023-04-03T00:40:24;5.48;78.25
68026;SHT31;54819;48.030;14.710;2023-04-03T00:42:57;5.49;78.35
68026;SHT31;54819;48.030;14.710;2023-04-03T00:45:27;5.51;78.50
68026;SHT31;54819;48.030;14.710;2023-04-03T00:48:08;5.52;78.51
68026;SHT31;54819;48.030;14.710;2023-04-03T00:50:41;5.53;78.49
68026;SHT31;54819;48.030;14.710;2023-04-03T00:53:12;5.53;78.55
68026;SHT31;54819;48.030;14.710;2023-04-03T00:55:45;5.48;78.68
68026;SHT31;54819;48.030;14.710;2023-04-03T00:58:15;5.45;78.59
68026;SHT31;54819;48.030;14.710;2023-04-03T01:00:48;5.43;78.47
68026;SHT31;54819;48.030;14.710;2023-04-03T01:03:24;5.39;78.30
68026;SHT31;54819;48.030;14.710;2023-04-03T01:05:52;5.35;78.49
68026;SHT31;54819;48.030;14.710;2023-04-03T01:08:19;5.34;78.81
68026;SHT31;54819;48.030;14.710;2023-04-03T01:10:48;5.34;78.96
68026;SHT31;54819;48.030;14.710;2023-04-03T01:13:33;5.36;79.11
68026;SHT31;54819;48.030;14.710;2023-04-03T01:16:02;5.38;79.17
68026;SHT31;54819;48.030;14.710;2023-04-03T01:18:31;5.41;79.21
68026;SHT31;54819;48.030;14.710;2023-04-03T01:23:56;5.41;79.30
68026;SHT31;54819;48.030;14.710;2023-04-03T01:26:35;5.38;79.28
68026;SHT31;54819;48.030;14.710;2023-04-03T01:29:02;5.36;79.25
68026;SHT31;54819;48.030;14.710;2023-04-03T01:34:26;5.30;79.17
68026;SHT31;54819;48.030;14.710;2023-04-03T01:36:55;5.26;79.17
68026;SHT31;54819;48.030;14.710;2023-04-03T01:39:22;5.26;79.36
68026;SHT31;54819;48.030;14.710;2023-04-03T01:41:49;5.25;79.43
68026;SHT31;54819;48.030;14.710;2023-04-03T01:44:24;5.26;79.56
68026;SHT31;54819;48.030;14.710;2023-04-03T01:46:50;5.28;79.53
68026;SHT31;54819;48.030;14.710;2023-04-03T01:49:18;5.29;79.59
68026;SHT31;54819;48.030;14.710;2023-04-03T01:51:45;5.30;79.60
68026;SHT31;54819;48.030;14.710;2023-04-03T01:54:12;5.29;79.55
68026;SHT31;54819;48.030;14.710;2023-04-03T01:56:39;5.27;79.62
68026;SHT31;54819;48.030;14.710;2023-04-03T01:59:07;5.24;79.51
68026;SHT31;54819;48.030;14.710;2023-04-03T02:01:33;5.19;79.78
68026;SHT31;54819;48.030;14.710;2023-04-03T02:04:00;5.15;79.71
68026;SHT31;54819;48.030;14.710;2023-04-03T02:06:27;5.13;79.50
68026;SHT31;54819;48.030;14.710;2023-04-03T02:08:54;5.11;79.55
68026;SHT31;54819;48.030;14.710;2023-04-03T02:11:20;5.11;79.68
68026;SHT31;54819;48.030;14.710;2023-04-03T02:13:47;5.12;79.78
68026;SHT31;54819;48.030;14.710;2023-04-03T02:16:14;5.14;79.98
68026;SHT31;54819;48.030;14.710;2023-04-03T02:18:41;5.17;80.11
68026;SHT31;54819;48.030;14.710;2023-04-03T02:21:07;5.21;80.19
68026;SHT31;54819;48.030;14.710;2023-04-03T02:23:34;5.25;80.16
68026;SHT31;54819;48.030;14.710;2023-04-03T02:26:03;5.25;80.10
68026;SHT31;54819;48.030;14.710;2023-04-03T02:28:36;5.24;80.03
68026;SHT31;54819;48.030;14.710;2023-04-03T02:31:04;5.24;79.97
68026;SHT31;54819;48.030;14.710;2023-04-03T02:33:33;5.22;79.81
68026;SHT31;54819;48.030;14.710;2023-04-03T02:36:06;5.19;79.80
68026;SHT31;54819;48.030;14.710;2023-04-03T02:38:36;5.16;79.68
68026;SHT31;54819;48.030;14.710;2023-04-03T02:41:04;5.14;79.73
68026;SHT31;54819;48.030;14.710;2023-04-03T02:43:34;5.12;79.70
68026;SHT31;54819;48.030;14.710;2023-04-03T02:46:02;5.11;79.78
68026;SHT31;54819;48.030;14.710;2023-04-03T02:48:30;5.13;79.88
68026;SHT31;54819;48.030;14.710;2023-04-03T02:50:57;5.14;80.06
68026;SHT31;54819;48.030;14.710;2023-04-03T02:53:24;5.14;80.17
68026;SHT31;54819;48.030;14.710;2023-04-03T02:55:51;5.15;80.20
68026;SHT31;54819;48.030;14.710;2023-04-03T02:58:17;5.15;80.21
68026;SHT31;54819;48.030;14.710;2023-04-03T03:00:44;5.12;80.13
68026;SHT31;54819;48.030;14.710;2023-04-03T03:03:11;5.12;80.04
68026;SHT31;54819;48.030;14.710;2023-04-03T03:05:39;5.09;79.88
68026;SHT31;54819;48.030;14.710;2023-04-03T03:08:06;5.07;79.81
68026;SHT31;54819;48.030;14.710;2023-04-03T03:10:33;5.07;79.83
68026;SHT31;54819;48.030;14.710;2023-04-03T03:13:01;5.04;79.70
68026;SHT31;54819;48.030;14.710;2023-04-03T03:15:28;4.99;79.92
68026;SHT31;54819;48.030;14.710;2023-04-03T03:17:55;4.95;79.87
68026;SHT31;54819;48.030;14.710;2023-04-03T03:20:21;4.94;79.92
68026;SHT31;54819;48.030;14.710;2023-04-03T03:22:48;4.95;80.07
68026;SHT31;54819;48.030;14.710;2023-04-03T03:25:15;4.96;80.24
68026;SHT31;54819;48.030;14.710;2023-04-03T03:27:42;4.98;80.32
68026;SHT31;54819;48.030;14.710;2023-04-03T03:30:08;4.98;80.41
68026;SHT31;54819;48.030;14.710;2023-04-03T03:32:36;5.01;80.35
68026;SHT31;54819;48.030;14.710;2023-04-03T03:35:03;5.02;80.21
68026;SHT31;54819;48.030;14.710;2023-04-03T03:37:30;5.03;80.09
68026;SHT31;54819;48.030;14.710;2023-04-03T03:39:57;5.01;79.92
68026;SHT31;54819;48.030;14.710;2023-04-03T03:42:23;5.00;79.89
68026;SHT31;54819;48.030;14.710;2023-04-03T03:44:50;4.94;79.63
68026;SHT31;54819;48.030;14.710;2023-04-03T03:47:18;4.89;79.50
68026;SHT31;54819;48.030;14.710;2023-04-03T03:49:45;4.87;79.56
68026;SHT31;54819;48.030;14.710;2023-04-03T03:52:11;4.84;79.44
68026;SHT31;54819;48.030;14.710;2023-04-03T03:54:38;4.82;79.44
68026;SHT31;54819;48.030;14.710;2023-04-03T03:57:05;4.78;79.44
68026;SHT31;54819;48.030;14.710;2023-04-03T03:59:32;4.77;79.45
68026;SHT31;54819;48.030;14.710;2023-04-03T04:01:59;4.76;79.47
68026;SHT31;54819;48.030;14.710;2023-04-03T04:04:25;4.76;79.51
68026;SHT31;54819;48.030;14.710;2023-04-03T04:06:52;4.77;79.35
68026;SHT31;54819;48.030;14.710;2023-04-03T04:09:19;4.75;78.79
68026;SHT31;54819;48.030;14.710;2023-04-03T04:11:45;4.73;78.63
68026;SHT31;54819;48.030;14.710;2023-04-03T04:14:12;4.73;78.66
68026;SHT31;54819;48.030;14.710;2023-04-03T04:16:40;4.71;78.55
68026;SHT31;54819;48.030;14.710;2023-04-03T04:19:10;4.70;78.60
68026;SHT31;54819;48.030;14.710;2023-04-03T04:21:37;4.71;78.72
68026;SHT31;54819;48.030;14.710;2023-04-03T04:24:05;4.70;78.75
68026;SHT31;54819;48.030;14.710;2023-04-03T04:26:32;4.69;78.82
68026;SHT31;54819;48.030;14.710;2023-04-03T04:28:59;4.68;79.03
68026;SHT31;54819;48.030;14.710;2023-04-03T04:31:26;4.68;79.27
68026;SHT31;54819;48.030;14.710;2023-04-03T04:33:53;4.69;79.45
68026;SHT31;54819;48.030;14.710;2023-04-03T04:36:20;4.72;79.51
68026;SHT31;54819;48.030;14.710;2023-04-03T04:38:47;4.74;79.53
68026;SHT31;54819;48.030;14.710;2023-04-03T04:41:14;4.74;79.47
68026;SHT31;54819;48.030;14.710;2023-04-03T04:43:42;4.74;79.39
68026;SHT31;54819;48.030;14.710;2023-04-03T04:46:09;4.74;79.28
68026;SHT31;54819;48.030;14.710;2023-04-03T04:48:43;4.72;79.19
68026;SHT31;54819;48.030;14.710;2023-04-03T04:51:11;4.70;79.13
68026;SHT31;54819;48.030;14.710;2023-04-03T04:53:38;4.68;79.08
68026;SHT31;54819;48.030;14.710;2023-04-03T04:56:06;4.65;79.11
68026;SHT31;54819;48.030;14.710;2023-04-03T04:58:33;4.63;79.13
68026;SHT31;54819;48.030;14.710;2023-04-03T05:01:01;4.64;78.70
68026;SHT31;54819;48.030;14.710;2023-04-03T05:03:31;4.63;78.66
68026;SHT31;54819;48.030;14.710;2023-04-03T05:05:58;4.66;78.72
68026;SHT31;54819;48.030;14.710;2023-04-03T05:08:27;4.68;78.90
68026;SHT31;54819;48.030;14.710;2023-04-03T05:10:54;4.71;78.84
68026;SHT31;54819;48.030;14.710;2023-04-03T05:13:22;4.76;78.85
68026;SHT31;54819;48.030;14.710;2023-04-03T05:15:49;4.80;78.70
68026;SHT31;54819;48.030;14.710;2023-04-03T05:18:15;4.82;78.63
68026;SHT31;54819;48.030;14.710;2023-04-03T05:20:43;4.86;78.58
68026;SHT31;54819;48.030;14.710;2023-04-03T05:23:10;4.86;78.35
68026;SHT31;54819;48.030;14.710;2023-04-03T05:25:38;4.86;78.20
68026;SHT31;54819;48.030;14.710;2023-04-03T05:28:05;4.85;78.12
68026;SHT31;54819;48.030;14.710;2023-04-03T05:30:33;4.84;77.93
68026;SHT31;54819;48.030;14.710;2023-04-03T05:33:01;4.85;77.84
68026;SHT31;54819;48.030;14.710;2023-04-03T05:35:35;4.85;77.74
68026;SHT31;54819;48.030;14.710;2023-04-03T05:38:08;4.85;77.63
68026;SHT31;54819;48.030;14.710;2023-04-03T05:40:35;4.85;77.47
68026;SHT31;54819;48.030;14.710;2023-04-03T05:43:02;4.86;77.49
68026;SHT31;54819;48.030;14.710;2023-04-03T05:45:31;4.89;77.51
68026;SHT31;54819;48.030;14.710;2023-04-03T05:47:58;4.93;77.60
68026;SHT31;54819;48.030;14.710;2023-04-03T05:50:25;4.97;77.59
68026;SHT31;54819;48.030;14.710;2023-04-03T05:52:52;5.01;77.32
68026;SHT31;54819;48.030;14.710;2023-04-03T05:55:25;5.07;77.49
68026;SHT31;54819;48.030;14.710;2023-04-03T05:57:52;5.10;76.99
68026;SHT31;54819;48.030;14.710;2023-04-03T06:00:19;5.11;76.55
68026;SHT31;54819;48.030;14.710;2023-04-03T06:02:52;5.14;76.60
68026;SHT31;54819;48.030;14.710;2023-04-03T06:05:21;5.14;76.16
68026;SHT31;54819;48.030;14.710;2023-04-03T06:07:49;5.16;76.08
68026;SHT31;54819;48.030;14.710;2023-04-03T06:10:16;5.18;76.00
68026;SHT31;54819;48.030;14.710;2023-04-03T06:12:43;5.18;75.79
68026;SHT31;54819;48.030;14.710;2023-04-03T06:15:11;5.16;75.65
68026;SHT31;54819;48.030;14.710;2023-04-03T06:17:39;5.17;75.71
68026;SHT31;54819;48.030;14.710;2023-04-03T06:20:06;5.19;76.00
68026;SHT31;54819;48.030;14.710;2023-04-03T06:22:34;5.22;76.05
68026;SHT31;54819;48.030;14.710;2023-04-03T06:25:00;5.26;76.16
68026;SHT31;54819;48.030;14.710;2023-04-03T06:27:28;5.33;76.19
68026;SHT31;54819;48.030;14.710;2023-04-03T06:29:54;5.41;76.16
68026;SHT31;54819;48.030;14.710;2023-04-03T06:32:21;5.49;76.22
68026;SHT31;54819;48.030;14.710;2023-04-03T06:34:48;5.56;75.70
68026;SHT31;54819;48.030;14.710;2023-04-03T06:37:15;5.59;74.90
68026;SHT31;54819;48.030;14.710;2023-04-03T06:39:44;5.63;75.01
68026;SHT31;54819;48.030;14.710;2023-04-03T06:42:11;5.63;74.75
68026;SHT31;54819;48.030;14.710;2023-04-03T06:44:46;5.65;74.60
68026;SHT31;54819;48.030;14.710;2023-04-03T06:47:14;5.73;74.71
68026;SHT31;54819;48.030;14.710;2023-04-03T06:49:42;5.81;74.62
68026;SHT31;54819;48.030;14.710;2023-04-03T06:52:10;5.89;74.16
68026;SHT31;54819;48.030;14.710;2023-04-03T06:54:38;5.93;73.74
68026;SHT31;54819;48.030;14.710;2023-04-03T06:57:06;6.02;73.94
68026;SHT31;54819;48.030;14.710;2023-04-03T06:59:34;6.14;73.91
68026;SHT31;54819;48.030;14.710;2023-04-03T07:02:01;6.29;73.45
68026;SHT31;54819;48.030;14.710;2023-04-03T07:04:28;6.42;72.89
68026;SHT31;54819;48.030;14.710;2023-04-03T07:06:55;6.54;73.09
68026;SHT31;54819;48.030;14.710;2023-04-03T07:09:22;6.65;72.60
68026;SHT31;54819;48.030;14.710;2023-04-03T07:11:48;6.76;72.70
68026;SHT31;54819;48.030;14.710;2023-04-03T07:14:15;6.93;72.95
68026;SHT31;54819;48.030;14.710;2023-04-03T07:16:42;7.03;72.29
68026;SHT31;54819;48.030;14.710;2023-04-03T07:19:08;7.12;71.96
68026;SHT31;54819;48.030;14.710;2023-04-03T07:21:36;7.14;71.02
68026;SHT31;54819;48.030;14.710;2023-04-03T07:24:02;7.19;70.18
68026;SHT31;54819;48.030;14.710;2023-04-03T07:26:29;7.04;69.29
68026;SHT31;54819;48.030;14.710;2023-04-03T07:28:56;7.15;70.81
68026;SHT31;54819;48.030;14.710;2023-04-03T07:31:23;7.17;69.38
68026;SHT31;54819;48.030;14.710;2023-04-03T07:33:51;7.24;69.02
68026;SHT31;54819;48.030;14.710;2023-04-03T07:36:19;7.22;67.21
68026;SHT31;54819;48.030;14.710;2023-04-03T07:38:48;6.95;65.17
68026;SHT31;54819;48.030;14.710;2023-04-03T07:41:16;6.91;64.53
68026;SHT31;54819;48.030;14.710;2023-04-03T07:43:46;6.87;64.92
68026;SHT31;54819;48.030;14.710;2023-04-03T07:46:13;6.71;63.43
68026;SHT31;54819;48.030;14.710;2023-04-03T07:48:40;6.66;63.56
68026;SHT31;54819;48.030;14.710;2023-04-03T07:51:06;6.75;64.07
68026;SHT31;54819;48.030;14.710;2023-04-03T07:53:33;6.72;63.84
68026;SHT31;54819;48.030;14.710;2023-04-03T07:56:00;6.84;64.40
68026;SHT31;54819;48.030;14.710;2023-04-03T07:58:28;6.91;64.61
68026;SHT31;54819;48.030;14.710;2023-04-03T08:00:56;6.86;63.67
68026;SHT31;54819;48.030;14.710;2023-04-03T08:03:23;6.97;63.94
68026;SHT31;54819;48.030;14.710;2023-04-03T08:05:50;7.02;64.57
68026;SHT31;54819;48.030;14.710;2023-04-03T08:08:18;7.12;63.72
68026;SHT31;54819;48.030;14.710;2023-04-03T08:10:49;6.99;64.06
68026;SHT31;54819;48.030;14.710;2023-04-03T08:13:18;7.04;64.22
68026;SHT31;54819;48.030;14.710;2023-04-03T08:15:46;7.07;63.92
68026;SHT31;54819;48.030;14.710;2023-04-03T08:18:13;6.85;62.56
68026;SHT31;54819;48.030;14.710;2023-04-03T08:20:41;6.89;63.37
68026;SHT31;54819;48.030;14.710;2023-04-03T08:23:09;6.85;63.46
68026;SHT31;54819;48.030;14.710;2023-04-03T08:25:40;6.91;62.27
68026;SHT31;54819;48.030;14.710;2023-04-03T08:28:08;6.83;61.91
68026;SHT31;54819;48.030;14.710;2023-04-03T08:30:39;6.85;62.54
68026;SHT31;54819;48.030;14.710;2023-04-03T08:33:07;6.99;62.64
68026;SHT31;54819;48.030;14.710;2023-04-03T08:35:39;7.08;60.85
68026;SHT31;54819;48.030;14.710;2023-04-03T08:38:07;7.04;59.28
68026;SHT31;54819;48.030;14.710;2023-04-03T08:40:36;7.08;58.49
68026;SHT31;54819;48.030;14.710;2023-04-03T08:45:55;6.97;56.36
68026;SHT31;54819;48.030;14.710;2023-04-03T08:48:33;6.79;55.40
68026;SHT31;54819;48.030;14.710;2023-04-03T08:51:19;6.94;56.57
68026;SHT31;54819;48.030;14.710;2023-04-03T08:54:49;7.02;57.12
68026;SHT31;54819;48.030;14.710;2023-04-03T08:57:07;6.97;57.14
68026;SHT31;54819;48.030;14.710;2023-04-03T08:59:37;7.07;56.64
68026;SHT31;54819;48.030;14.710;2023-04-03T09:02:17;6.84;56.10
68026;SHT31;54819;48.030;14.710;2023-04-03T09:04:53;6.96;57.14
68026;SHT31;54819;48.030;14.710;2023-04-03T09:07:22;7.04;56.99
68026;SHT31;54819;48.030;14.710;2023-04-03T09:10:04;6.97;56.93
68026;SHT31;54819;48.030;14.710;2023-04-03T09:12:34;6.91;57.45
68026;SHT31;54819;48.030;14.710;2023-04-03T09:15:17;6.76;56.83
68026;SHT31;54819;48.030;14.710;2023-04-03T09:23:42;6.33;59.82
68026;SHT31;54819;48.030;14.710;2023-04-03T09:26:14;6.38;61.11
68026;SHT31;54819;48.030;14.710;2023-04-03T09:29:00;6.30;61.55
68026;SHT31;54819;48.030;14.710;2023-04-03T09:31:37;6.14;61.42
68026;SHT31;54819;48.030;14.710;2023-04-03T09:34:15;6.10;61.19
68026;SHT31;54819;48.030;14.710;2023-04-03T09:37:01;6.27;61.86
68026;SHT31;54819;48.030;14.710;2023-04-03T09:39:33;6.20;63.37
68026;SHT31;54819;48.030;14.710;2023-04-03T09:42:21;6.29;63.97
68026;SHT31;54819;48.030;14.710;2023-04-03T09:45:00;6.41;64.64
68026;SHT31;54819;48.030;14.710;2023-04-03T09:47:35;6.61;64.87
68026;SHT31;54819;48.030;14.710;2023-04-03T09:52:40;6.79;65.38
68026;SHT31;54819;48.030;14.710;2023-04-03T09:55:16;6.98;65.00
68026;SHT31;54819;48.030;14.710;2023-04-03T09:57:45;6.97;64.66
68026;SHT31;54819;48.030;14.710;2023-04-03T10:00:25;6.78;62.91
68026;SHT31;54819;48.030;14.710;2023-04-03T10:02:59;6.91;62.41
68026;SHT31;54819;48.030;14.710;2023-04-03T10:10:43;7.61;59.27
68026;SHT31;54819;48.030;14.710;2023-04-03T10:13:14;7.47;61.38
68026;SHT31;54819;48.030;14.710;2023-04-03T10:15:51;7.73;61.35
68026;SHT31;54819;48.030;14.710;2023-04-03T10:18:45;7.88;61.23
68026;SHT31;54819;48.030;14.710;2023-04-03T10:24:15;8.26;60.55
68026;SHT31;54819;48.030;14.710;2023-04-03T10:27:49;8.61;60.25
68026;SHT31;54819;48.030;14.710;2023-04-03T10:37:32;9.26;59.41
68026;SHT31;54819;48.030;14.710;2023-04-03T10:40:23;9.42;58.70
68026;SHT31;54819;48.030;14.710;2023-04-03T10:49:04;9.31;57.65
68026;SHT31;54819;48.030;14.710;2023-04-03T10:51:45;8.67;53.99
68026;SHT31;54819;48.030;14.710;2023-04-03T10:57:05;8.84;55.92
68026;SHT31;54819;48.030;14.710;2023-04-03T10:59:46;8.81;55.59
68026;SHT31;54819;48.030;14.710;2023-04-03T11:02:24;8.93;54.46
68026;SHT31;54819;48.030;14.710;2023-04-03T11:05:04;8.68;50.87
68026;SHT31;54819;48.030;14.710;2023-04-03T11:07:57;8.75;52.41
68026;SHT31;54819;48.030;14.710;2023-04-03T11:10:41;8.59;50.62
68026;SHT31;54819;48.030;14.710;2023-04-03T11:13:15;8.55;49.70
68026;SHT31;54819;48.030;14.710;2023-04-03T11:15:49;8.43;50.32
68026;SHT31;54819;48.030;14.710;2023-04-03T11:18:20;8.37;50.19
68026;SHT31;54819;48.030;14.710;2023-04-03T11:21:03;8.41;51.09
68026;SHT31;54819;48.030;14.710;2023-04-03T11:23:39;8.34;51.30
68026;SHT31;54819;48.030;14.710;2023-04-03T11:26:16;8.18;50.57
68026;SHT31;54819;48.030;14.710;2023-04-03T11:28:50;8.09;51.06
68026;SHT31;54819;48.030;14.710;2023-04-03T11:34:00;8.03;49.00
68026;SHT31;54819;48.030;14.710;2023-04-03T11:36:55;8.07;49.77
68026;SHT31;54819;48.030;14.710;2023-04-03T11:44:46;8.05;49.13
68026;SHT31;54819;48.030;14.710;2023-04-03T11:47:43;8.11;49.61
68026;SHT31;54819;48.030;14.710;2023-04-03T11:55:44;7.55;49.20
68026;SHT31;54819;48.030;14.710;2023-04-03T11:58:23;7.72;49.66
68026;SHT31;54819;48.030;14.710;2023-04-03T12:01:06;7.82;49.87
68026;SHT31;54819;48.030;14.710;2023-04-03T12:19:04;7.27;50.71
68026;SHT31;54819;48.030;14.710;2023-04-03T12:22:08;7.28;51.04
68026;SHT31;54819;48.030;14.710;2023-04-03T12:24:44;7.33;52.10
68026;SHT31;54819;48.030;14.710;2023-04-03T12:30:12;7.42;50.95
68026;SHT31;54819;48.030;14.710;2023-04-03T12:32:47;7.38;49.88
68026;SHT31;54819;48.030;14.710;2023-04-03T12:35:40;7.51;50.79
68026;SHT31;54819;48.030;14.710;2023-04-03T12:47:15;7.07;51.87
68026;SHT31;54819;48.030;14.710;2023-04-03T12:49:50;6.93;51.91
68026;SHT31;54819;48.030;14.710;2023-04-03T12:55:16;6.84;51.38
68026;SHT31;54819;48.030;14.710;2023-04-03T12:57:45;6.98;48.29
68026;SHT31;54819;48.030;14.710;2023-04-03T13:00:25;7.07;47.55
68026;SHT31;54819;48.030;14.710;2023-04-03T13:03:02;6.95;47.35
68026;SHT31;54819;48.030;14.710;2023-04-03T13:05:31;7.04;46.70
68026;SHT31;54819;48.030;14.710;2023-04-03T13:08:03;6.91;47.46
68026;SHT31;54819;48.030;14.710;2023-04-03T13:10:53;6.91;47.68
68026;SHT31;54819;48.030;14.710;2023-04-03T13:13:53;6.92;46.34
68026;SHT31;54819;48.030;14.710;2023-04-03T13:16:22;6.81;45.41
68026;SHT31;54819;48.030;14.710;2023-04-03T13:18:52;6.74;45.75
68026;SHT31;54819;48.030;14.710;2023-04-03T13:21:28;6.65;45.32
68026;SHT31;54819;48.030;14.710;2023-04-03T13:24:00;6.68;44.83
68026;SHT31;54819;48.030;14.710;2023-04-03T13:26:40;6.70;44.70
68026;SHT31;54819;48.030;14.710;2023-04-03T13:29:17;6.85;45.39
68026;SHT31;54819;48.030;14.710;2023-04-03T13:31:57;6.97;44.33
68026;SHT31;54819;48.030;14.710;2023-04-03T13:34:27;7.07;44.47
68026;SHT31;54819;48.030;14.710;2023-04-03T13:37:03;7.09;44.43
68026;SHT31;54819;48.030;14.710;2023-04-03T13:39:32;7.12;44.96
68026;SHT31;54819;48.030;14.710;2023-04-03T13:42:16;7.12;45.26
68026;SHT31;54819;48.030;14.710;2023-04-03T13:45:06;7.13;46.57
68026;SHT31;54819;48.030;14.710;2023-04-03T13:47:51;7.03;47.15
68026;SHT31;54819;48.030;14.710;2023-04-03T13:50:22;6.82;46.52
68026;SHT31;54819;48.030;14.710;2023-04-03T13:52:53;6.71;46.70
68026;SHT31;54819;48.030;14.710;2023-04-03T13:55:35;6.56;47.16
68026;SHT31;54819;48.030;14.710;2023-04-03T13:58:26;6.56;47.24
68026;SHT31;54819;48.030;14.710;2023-04-03T14:01:14;6.49;46.40
68026;SHT31;54819;48.030;14.710;2023-04-03T14:03:51;6.48;46.31
68026;SHT31;54819;48.030;14.710;2023-04-03T14:06:26;6.50;46.39
68026;SHT31;54819;48.030;14.710;2023-04-03T14:08:56;6.58;46.98
68026;SHT31;54819;48.030;14.710;2023-04-03T14:11:24;6.77;44.46
68026;SHT31;54819;48.030;14.710;2023-04-03T14:14:09;6.80;43.89
68026;SHT31;54819;48.030;14.710;2023-04-03T14:16:43;6.87;42.50
68026;SHT31;54819;48.030;14.710;2023-04-03T14:19:18;6.88;42.59
68026;SHT31;54819;48.030;14.710;2023-04-03T14:21:54;6.85;42.81
68026;SHT31;54819;48.030;14.710;2023-04-03T14:24:22;6.66;44.09
68026;SHT31;54819;48.030;14.710;2023-04-03T14:26:50;6.65;45.89
68026;SHT31;54819;48.030;14.710;2023-04-03T14:29:21;6.59;46.93
68026;SHT31;54819;48.030;14.710;2023-04-03T14:31:49;6.46;47.24
68026;SHT31;54819;48.030;14.710;2023-04-03T14:34:29;6.32;47.77
68026;SHT31;54819;48.030;14.710;2023-04-03T14:36:56;6.32;47.36
68026;SHT31;54819;48.030;14.710;2023-04-03T14:39:23;6.44;46.66
68026;SHT31;54819;48.030;14.710;2023-04-03T14:41:49;6.45;46.67
68026;SHT31;54819;48.030;14.710;2023-04-03T14:44:16;6.55;46.01
68026;SHT31;54819;48.030;14.710;2023-04-03T14:46:43;6.50;45.41
68026;SHT31;54819;48.030;14.710;2023-04-03T14:49:24;6.41;45.13
68026;SHT31;54819;48.030;14.710;2023-04-03T14:51:56;6.32;45.41
68026;SHT31;54819;48.030;14.710;2023-04-03T14:54:24;6.44;46.07
68026;SHT31;54819;48.030;14.710;2023-04-03T14:56:54;6.40;46.40
68026;SHT31;54819;48.030;14.710;2023-04-03T14:59:23;6.26;46.97
68026;SHT31;54819;48.030;14.710;2023-04-03T15:01:51;6.29;46.76
68026;SHT31;54819;48.030;14.710;2023-04-03T15:04:19;6.31;45.91
68026;SHT31;54819;48.030;14.710;2023-04-03T15:06:47;6.26;45.33
68026;SHT31;54819;48.030;14.710;2023-04-03T15:09:25;6.19;46.14
68026;SHT31;54819;48.030;14.710;2023-04-03T15:11:54;6.13;45.08
68026;SHT31;54819;48.030;14.710;2023-04-03T15:14:21;6.19;45.28
68026;SHT31;54819;48.030;14.710;2023-04-03T15:17:06;6.20;43.45
68026;SHT31;54819;48.030;14.710;2023-04-03T15:19:40;6.15;43.60
68026;SHT31;54819;48.030;14.710;2023-04-03T15:22:08;6.05;44.44
68026;SHT31;54819;48.030;14.710;2023-04-03T15:24:41;6.16;44.67
68026;SHT31;54819;48.030;14.710;2023-04-03T15:27:09;6.08;44.21
68026;SHT31;54819;48.030;14.710;2023-04-03T15:29:38;6.08;44.61
68026;SHT31;54819;48.030;14.710;2023-04-03T15:32:07;6.06;45.88
68026;SHT31;54819;48.030;14.710;2023-04-03T15:34:36;5.96;46.73
68026;SHT31;54819;48.030;14.710;2023-04-03T15:37:03;5.95;47.29
68026;SHT31;54819;48.030;14.710;2023-04-03T15:39:31;5.90;47.13
68026;SHT31;54819;48.030;14.710;2023-04-03T15:41:58;5.86;47.64
68026;SHT31;54819;48.030;14.710;2023-04-03T15:44:34;5.85;48.51
68026;SHT31;54819;48.030;14.710;2023-04-03T15:47:01;5.73;48.00
68026;SHT31;54819;48.030;14.710;2023-04-03T15:49:28;5.78;47.93
68026;SHT31;54819;48.030;14.710;2023-04-03T15:51:55;5.83;46.38
68026;SHT31;54819;48.030;14.710;2023-04-03T15:54:22;5.84;45.81
68026;SHT31;54819;48.030;14.710;2023-04-03T15:56:50;5.76;46.76
68026;SHT31;54819;48.030;14.710;2023-04-03T15:59:17;5.76;46.01
68026;SHT31;54819;48.030;14.710;2023-04-03T16:01:44;5.76;46.50
68026;SHT31;54819;48.030;14.710;2023-04-03T16:04:12;5.70;46.46
68026;SHT31;54819;48.030;14.710;2023-04-03T16:06:41;5.65;47.56
68026;SHT31;54819;48.030;14.710;2023-04-03T16:09:08;5.58;47.78
68026;SHT31;54819;48.030;14.710;2023-04-03T16:11:35;5.56;47.80
68026;SHT31;54819;48.030;14.710;2023-04-03T16:14:06;5.50;48.08
68026;SHT31;54819;48.030;14.710;2023-04-03T16:16:34;5.44;48.93
68026;SHT31;54819;48.030;14.710;2023-04-03T16:19:01;5.39;48.94
68026;SHT31;54819;48.030;14.710;2023-04-03T16:21:29;5.35;48.59
68026;SHT31;54819;48.030;14.710;2023-04-03T16:23:59;5.31;48.21
68026;SHT31;54819;48.030;14.710;2023-04-03T16:26:27;5.23;47.75
68026;SHT31;54819;48.030;14.710;2023-04-03T16:28:53;5.26;47.49
68026;SHT31;54819;48.030;14.710;2023-04-03T16:31:20;5.24;47.67
68026;SHT31;54819;48.030;14.710;2023-04-03T16:33:50;5.14;48.20
68026;SHT31;54819;48.030;14.710;2023-04-03T16:36:17;5.11;48.06
68026;SHT31;54819;48.030;14.710;2023-04-03T16:38:44;5.09;47.91
68026;SHT31;54819;48.030;14.710;2023-04-03T16:41:10;5.11;47.39
68026;SHT31;54819;48.030;14.710;2023-04-03T16:43:37;5.08;48.05
68026;SHT31;54819;48.030;14.710;2023-04-03T16:46:04;5.12;48.06
68026;SHT31;54819;48.030;14.710;2023-04-03T16:48:30;5.02;47.54
68026;SHT31;54819;48.030;14.710;2023-04-03T16:50:58;4.95;47.16
68026;SHT31;54819;48.030;14.710;2023-04-03T16:53:25;4.83;46.61
68026;SHT31;54819;48.030;14.710;2023-04-03T16:55:52;4.82;46.11
68026;SHT31;54819;48.030;14.710;2023-04-03T16:58:19;4.77;46.80
68026;SHT31;54819;48.030;14.710;2023-04-03T17:00:49;4.67;47.93
68026;SHT31;54819;48.030;14.710;2023-04-03T17:03:16;4.65;48.45
68026;SHT31;54819;48.030;14.710;2023-04-03T17:05:45;4.59;48.94
68026;SHT31;54819;48.030;14.710;2023-04-03T17:08:14;4.49;49.82
68026;SHT31;54819;48.030;14.710;2023-04-03T17:10:43;4.46;49.43
68026;SHT31;54819;48.030;14.710;2023-04-03T17:13:09;4.38;50.59
68026;SHT31;54819;48.030;14.710;2023-04-03T17:15:36;4.34;51.31
68026;SHT31;54819;48.030;14.710;2023-04-03T17:18:03;4.32;51.37